sensor_id;sensor_type;location;lat;lon;timestamp;P1;durP1;ratioP1;P2;durP2;ratioP2
26201;SDS011;13944;28.562;77.188;2023-04-09T00:00:08;173.23;;;98.80;;
26201;SDS011;13944;28.562;77.188;2023-04-09T00:02:34;199.17;;;108.03;;
26201;SDS011;13944;28.562;77.188;2023-04-09T00:05:01;211.77;;;118.00;;
26201;SDS011;13944;28.562;77.188;2023-04-09T00:07:27;230.70;;;134.73;;
26201;SDS011;13944;28.562;77.188;2023-04-09T00:09:54;239.17;;;137.37;;
26201;SDS011;13944;28.562;77.188;2023-04-09T00:12:21;236.97;;;134.73;;
26201;SDS011;13944;28.562;77.188;2023-04-09T00:14:47;234.67;;;136.37;;
26201;SDS011;13944;28.562;77.188;2023-04-09T00:17:14;228.70;;;132.63;;
26201;SDS011;13944;28.562;77.188;2023-04-09T00:19:41;212.87;;;123.37;;
26201;SDS011;13944;28.562;77.188;2023-04-09T00:22:07;227.90;;;122.13;;
26201;SDS011;13944;28.562;77.188;2023-04-09T00:24:34;217.27;;;118.83;;
26201;SDS011;13944;28.562;77.188;2023-04-09T00:27:00;230.97;;;118.77;;
26201;SDS011;13944;28.562;77.188;2023-04-09T00:29:27;239.70;;;121.20;;
26201;SDS011;13944;28.562;77.188;2023-04-09T00:31:53;233.67;;;120.90;;
26201;SDS011;13944;28.562;77.188;2023-04-09T00:34:20;226.23;;;120.53;;
26201;SDS011;13944;28.562;77.188;2023-04-09T00:36:46;240.60;;;124.50;;
26201;SDS011;13944;28.562;77.188;2023-04-09T00:39:13;243.40;;;122.40;;
26201;SDS011;13944;28.562;77.188;2023-04-09T00:41:39;270.00;;;126.47;;
26201;SDS011;13944;28.562;77.188;2023-04-09T00:44:06;233.40;;;121.90;;
26201;SDS011;13944;28.562;77.188;2023-04-09T00:46:32;242.30;;;123.87;;
26201;SDS011;13944;28.562;77.188;2023-04-09T00:48:59;226.07;;;118.07;;
26201;SDS011;13944;28.562;77.188;2023-04-09T00:51:26;224.20;;;117.50;;
26201;SDS011;13944;28.562;77.188;2023-04-09T00:53:53;224.93;;;115.83;;
26201;SDS011;13944;28.562;77.188;2023-04-09T00:56:20;226.90;;;123.00;;
26201;SDS011;13944;28.562;77.188;2023-04-09T00:58:47;239.90;;;121.70;;
26201;SDS011;13944;28.562;77.188;2023-04-09T01:01:14;241.17;;;123.50;;
26201;SDS011;13944;28.562;77.188;2023-04-09T01:03:40;239.17;;;121.07;;
26201;SDS011;13944;28.562;77.188;2023-04-09T01:08:43;247.77;;;124.47;;
26201;SDS011;13944;28.562;77.188;2023-04-09T01:16:28;241.70;;;126.43;;
26201;SDS011;13944;28.562;77.188;2023-04-09T01:19:08;779.63;;;171.43;;
26201;SDS011;13944;28.562;77.188;2023-04-09T01:21:35;295.50;;;130.60;;
26201;SDS011;13944;28.562;77.188;2023-04-09T01:24:24;252.27;;;128.20;;
26201;SDS011;13944;28.562;77.188;2023-04-09T01:26:58;269.25;;;128.27;;
26201;SDS011;13944;28.562;77.188;2023-04-09T01:29:29;261.47;;;129.60;;
26201;SDS011;13944;28.562;77.188;2023-04-09T01:31:56;277.52;;;134.25;;
26201;SDS011;13944;28.562;77.188;2023-04-09T01:34:24;281.88;;;133.57;;
26201;SDS011;13944;28.562;77.188;2023-04-09T01:36:52;284.07;;;139.97;;
26201;SDS011;13944;28.562;77.188;2023-04-09T01:39:19;278.97;;;137.27;;
26201;SDS011;13944;28.562;77.188;2023-04-09T01:41:46;284.33;;;136.47;;
26201;SDS011;13944;28.562;77.188;2023-04-09T01:44:13;275.07;;;138.00;;
26201;SDS011;13944;28.562;77.188;2023-04-09T01:46:40;283.02;;;139.75;;
26201;SDS011;13944;28.562;77.188;2023-04-09T01:51:40;312.75;;;145.40;;
26201;SDS011;13944;28.562;77.188;2023-04-09T01:54:07;307.33;;;142.07;;
26201;SDS011;13944;28.562;77.188;2023-04-09T01:56:40;298.45;;;144.18;;
26201;SDS011;13944;28.562;77.188;2023-04-09T01:59:06;292.02;;;143.52;;
26201;SDS011;13944;28.562;77.188;2023-04-09T02:04:29;290.52;;;145.77;;
26201;SDS011;13944;28.562;77.188;2023-04-09T02:09:40;294.48;;;143.18;;
26201;SDS011;13944;28.562;77.188;2023-04-09T02:12:09;299.35;;;143.13;;
26201;SDS011;13944;28.562;77.188;2023-04-09T02:14:37;289.35;;;142.93;;
26201;SDS011;13944;28.562;77.188;2023-04-09T02:17:05;294.30;;;144.68;;
26201;SDS011;13944;28.562;77.188;2023-04-09T02:19:42;313.27;;;148.65;;
26201;SDS011;13944;28.562;77.188;2023-04-09T02:22:09;303.85;;;146.70;;
26201;SDS011;13944;28.562;77.188;2023-04-09T02:24:36;294.65;;;147.68;;
26201;SDS011;13944;28.562;77.188;2023-04-09T02:27:03;293.13;;;147.52;;
26201;SDS011;13944;28.562;77.188;2023-04-09T02:29:30;300.65;;;151.15;;
26201;SDS011;13944;28.562;77.188;2023-04-09T02:31:56;303.42;;;153.15;;
26201;SDS011;13944;28.562;77.188;2023-04-09T02:34:23;286.20;;;147.45;;
26201;SDS011;13944;28.562;77.188;2023-04-09T02:36:50;310.17;;;154.80;;
26201;SDS011;13944;28.562;77.188;2023-04-09T02:39:16;287.13;;;150.57;;
26201;SDS011;13944;28.562;77.188;2023-04-09T02:41:43;284.83;;;148.40;;
26201;SDS011;13944;28.562;77.188;2023-04-09T02:44:09;307.85;;;152.88;;
26201;SDS011;13944;28.562;77.188;2023-04-09T02:46:37;302.05;;;152.85;;
26201;SDS011;13944;28.562;77.188;2023-04-09T02:49:03;290.20;;;150.45;;
26201;SDS011;13944;28.562;77.188;2023-04-09T02:51:30;305.52;;;151.15;;
26201;SDS011;13944;28.562;77.188;2023-04-09T02:53:57;300.08;;;149.23;;
26201;SDS011;13944;28.562;77.188;2023-04-09T02:56:23;300.42;;;150.20;;
26201;SDS011;13944;28.562;77.188;2023-04-09T02:58:49;287.73;;;148.23;;
26201;SDS011;13944;28.562;77.188;2023-04-09T03:01:19;285.25;;;144.52;;
26201;SDS011;13944;28.562;77.188;2023-04-09T03:03:46;269.08;;;142.80;;
26201;SDS011;13944;28.562;77.188;2023-04-09T03:06:12;278.33;;;144.50;;
26201;SDS011;13944;28.562;77.188;2023-04-09T03:08:39;271.40;;;143.00;;
26201;SDS011;13944;28.562;77.188;2023-04-09T03:11:05;260.02;;;139.75;;
26201;SDS011;13944;28.562;77.188;2023-04-09T03:13:32;273.25;;;141.00;;
26201;SDS011;13944;28.562;77.188;2023-04-09T03:15:58;268.15;;;138.45;;
26201;SDS011;13944;28.562;77.188;2023-04-09T03:18:25;251.13;;;132.93;;
26201;SDS011;13944;28.562;77.188;2023-04-09T03:20:51;235.68;;;126.55;;
26201;SDS011;13944;28.562;77.188;2023-04-09T03:23:18;226.32;;;124.72;;
26201;SDS011;13944;28.562;77.188;2023-04-09T03:25:44;218.75;;;120.20;;
26201;SDS011;13944;28.562;77.188;2023-04-09T03:28:11;224.77;;;121.35;;
26201;SDS011;13944;28.562;77.188;2023-04-09T03:30:37;217.77;;;116.18;;
26201;SDS011;13944;28.562;77.188;2023-04-09T03:33:04;200.20;;;110.72;;
26201;SDS011;13944;28.562;77.188;2023-04-09T03:35:30;194.68;;;104.38;;
26201;SDS011;13944;28.562;77.188;2023-04-09T03:37:57;190.05;;;101.32;;
26201;SDS011;13944;28.562;77.188;2023-04-09T03:40:23;187.05;;;101.47;;
26201;SDS011;13944;28.562;77.188;2023-04-09T03:42:50;185.68;;;97.63;;
26201;SDS011;13944;28.562;77.188;2023-04-09T03:45:16;175.70;;;94.05;;
26201;SDS011;13944;28.562;77.188;2023-04-09T03:47:43;165.48;;;93.25;;
26201;SDS011;13944;28.562;77.188;2023-04-09T03:50:09;164.50;;;91.47;;
26201;SDS011;13944;28.562;77.188;2023-04-09T03:52:36;161.77;;;87.28;;
26201;SDS011;13944;28.562;77.188;2023-04-09T03:55:02;157.48;;;85.32;;
26201;SDS011;13944;28.562;77.188;2023-04-09T03:57:29;169.88;;;86.40;;
26201;SDS011;13944;28.562;77.188;2023-04-09T03:59:56;153.82;;;84.40;;
26201;SDS011;13944;28.562;77.188;2023-04-09T04:02:22;164.43;;;85.18;;
26201;SDS011;13944;28.562;77.188;2023-04-09T04:04:51;162.13;;;83.05;;
26201;SDS011;13944;28.562;77.188;2023-04-09T04:07:17;160.80;;;80.80;;
26201;SDS011;13944;28.562;77.188;2023-04-09T04:09:43;150.50;;;79.93;;
26201;SDS011;13944;28.562;77.188;2023-04-09T04:12:10;139.68;;;76.32;;
26201;SDS011;13944;28.562;77.188;2023-04-09T04:14:36;147.23;;;77.00;;
26201;SDS011;13944;28.562;77.188;2023-04-09T04:17:03;134.93;;;73.30;;
26201;SDS011;13944;28.562;77.188;2023-04-09T04:19:29;121.35;;;66.78;;
26201;SDS011;13944;28.562;77.188;2023-04-09T04:21:56;124.30;;;62.40;;
26201;SDS011;13944;28.562;77.188;2023-04-09T04:24:23;117.20;;;60.95;;
26201;SDS011;13944;28.562;77.188;2023-04-09T04:26:49;116.88;;;60.13;;
26201;SDS011;13944;28.562;77.188;2023-04-09T04:29:16;101.47;;;56.22;;
26201;SDS011;13944;28.562;77.188;2023-04-09T04:31:42;109.75;;;57.63;;
26201;SDS011;13944;28.562;77.188;2023-04-09T04:34:09;96.03;;;51.55;;
26201;SDS011;13944;28.562;77.188;2023-04-09T04:36:35;94.15;;;51.33;;
26201;SDS011;13944;28.562;77.188;2023-04-09T04:39:02;91.20;;;48.30;;
26201;SDS011;13944;28.562;77.188;2023-04-09T04:41:28;83.45;;;44.47;;
26201;SDS011;13944;28.562;77.188;2023-04-09T04:43:55;88.00;;;45.35;;
26201;SDS011;13944;28.562;77.188;2023-04-09T04:46:21;90.82;;;45.13;;
26201;SDS011;13944;28.562;77.188;2023-04-09T04:48:48;98.28;;;44.45;;
26201;SDS011;13944;28.562;77.188;2023-04-09T04:51:14;87.72;;;44.65;;
26201;SDS011;13944;28.562;77.188;2023-04-09T04:53:41;90.57;;;45.83;;
26201;SDS011;13944;28.562;77.188;2023-04-09T04:56:16;92.25;;;47.22;;
26201;SDS011;13944;28.562;77.188;2023-04-09T04:58:43;91.22;;;46.45;;
26201;SDS011;13944;28.562;77.188;2023-04-09T05:01:09;100.45;;;47.03;;
26201;SDS011;13944;28.562;77.188;2023-04-09T05:03:36;94.40;;;49.05;;
26201;SDS011;13944;28.562;77.188;2023-04-09T05:06:02;104.05;;;50.83;;
26201;SDS011;13944;28.562;77.188;2023-04-09T05:08:29;95.63;;;48.00;;
26201;SDS011;13944;28.562;77.188;2023-04-09T05:10:56;91.90;;;45.13;;
26201;SDS011;13944;28.562;77.188;2023-04-09T05:13:22;96.35;;;43.95;;
26201;SDS011;13944;28.562;77.188;2023-04-09T05:15:49;94.97;;;44.70;;
26201;SDS011;13944;28.562;77.188;2023-04-09T05:18:15;80.63;;;44.40;;
26201;SDS011;13944;28.562;77.188;2023-04-09T05:20:42;78.75;;;43.08;;
26201;SDS011;13944;28.562;77.188;2023-04-09T05:23:08;76.22;;;38.70;;
26201;SDS011;13944;28.562;77.188;2023-04-09T05:25:37;50.05;;;25.90;;
26201;SDS011;13944;28.562;77.188;2023-04-09T05:28:03;52.13;;;26.50;;
26201;SDS011;13944;28.562;77.188;2023-04-09T05:30:30;54.72;;;28.05;;
26201;SDS011;13944;28.562;77.188;2023-04-09T05:32:56;50.97;;;27.52;;
26201;SDS011;13944;28.562;77.188;2023-04-09T05:35:23;52.63;;;27.52;;
26201;SDS011;13944;28.562;77.188;2023-04-09T05:37:50;60.38;;;31.90;;
26201;SDS011;13944;28.562;77.188;2023-04-09T05:40:16;64.88;;;31.73;;
26201;SDS011;13944;28.562;77.188;2023-04-09T05:42:43;60.67;;;32.45;;
26201;SDS011;13944;28.562;77.188;2023-04-09T05:45:09;65.50;;;32.55;;
26201;SDS011;13944;28.562;77.188;2023-04-09T05:47:36;61.63;;;33.03;;
26201;SDS011;13944;28.562;77.188;2023-04-09T05:50:02;58.25;;;31.05;;
26201;SDS011;13944;28.562;77.188;2023-04-09T05:52:29;51.83;;;28.70;;
26201;SDS011;13944;28.562;77.188;2023-04-09T05:54:56;52.28;;;26.38;;
26201;SDS011;13944;28.562;77.188;2023-04-09T05:57:22;45.53;;;26.05;;
26201;SDS011;13944;28.562;77.188;2023-04-09T05:59:49;46.92;;;24.63;;
26201;SDS011;13944;28.562;77.188;2023-04-09T06:02:15;45.60;;;24.05;;
26201;SDS011;13944;28.562;77.188;2023-04-09T06:04:42;51.45;;;26.05;;
26201;SDS011;13944;28.562;77.188;2023-04-09T06:07:08;52.53;;;25.08;;
26201;SDS011;13944;28.562;77.188;2023-04-09T06:09:35;46.08;;;23.42;;
26201;SDS011;13944;28.562;77.188;2023-04-09T06:12:02;44.20;;;20.33;;
26201;SDS011;13944;28.562;77.188;2023-04-09T06:14:29;44.85;;;20.77;;
26201;SDS011;13944;28.562;77.188;2023-04-09T06:16:57;37.60;;;16.73;;
26201;SDS011;13944;28.562;77.188;2023-04-09T06:19:24;32.75;;;14.75;;
26201;SDS011;13944;28.562;77.188;2023-04-09T06:21:51;35.67;;;16.15;;
26201;SDS011;13944;28.562;77.188;2023-04-09T06:24:17;36.53;;;16.85;;
26201;SDS011;13944;28.562;77.188;2023-04-09T06:26:44;31.17;;;16.15;;
26201;SDS011;13944;28.562;77.188;2023-04-09T06:29:10;33.67;;;15.52;;
26201;SDS011;13944;28.562;77.188;2023-04-09T06:31:37;27.73;;;14.18;;
26201;SDS011;13944;28.562;77.188;2023-04-09T06:34:04;27.88;;;12.77;;
26201;SDS011;13944;28.562;77.188;2023-04-09T06:36:31;32.47;;;13.98;;
26201;SDS011;13944;28.562;77.188;2023-04-09T06:38:58;28.90;;;15.50;;
26201;SDS011;13944;28.562;77.188;2023-04-09T06:41:25;38.92;;;15.65;;
26201;SDS011;13944;28.562;77.188;2023-04-09T06:43:52;32.50;;;12.52;;
26201;SDS011;13944;28.562;77.188;2023-04-09T06:46:18;28.20;;;9.95;;
26201;SDS011;13944;28.562;77.188;2023-04-09T06:48:45;32.60;;;10.85;;
26201;SDS011;13944;28.562;77.188;2023-04-09T06:51:12;19.48;;;8.80;;
26201;SDS011;13944;28.562;77.188;2023-04-09T06:53:39;22.45;;;8.95;;
26201;SDS011;13944;28.562;77.188;2023-04-09T06:56:05;17.10;;;7.07;;
26201;SDS011;13944;28.562;77.188;2023-04-09T06:58:32;23.13;;;9.57;;
26201;SDS011;13944;28.562;77.188;2023-04-09T07:00:59;23.33;;;10.05;;
26201;SDS011;13944;28.562;77.188;2023-04-09T07:03:25;25.25;;;9.15;;
26201;SDS011;13944;28.562;77.188;2023-04-09T07:05:55;23.77;;;9.30;;
26201;SDS011;13944;28.562;77.188;2023-04-09T07:08:22;25.08;;;8.93;;
26201;SDS011;13944;28.562;77.188;2023-04-09T07:10:48;19.00;;;8.05;;
26201;SDS011;13944;28.562;77.188;2023-04-09T07:13:15;24.73;;;8.75;;
26201;SDS011;13944;28.562;77.188;2023-04-09T07:15:41;19.70;;;8.55;;
26201;SDS011;13944;28.562;77.188;2023-04-09T07:18:08;21.23;;;8.38;;
26201;SDS011;13944;28.562;77.188;2023-04-09T07:20:34;21.52;;;10.55;;
26201;SDS011;13944;28.562;77.188;2023-04-09T07:23:01;22.48;;;10.77;;
26201;SDS011;13944;28.562;77.188;2023-04-09T07:25:27;29.65;;;13.30;;
26201;SDS011;13944;28.562;77.188;2023-04-09T07:27:54;34.15;;;15.73;;
26201;SDS011;13944;28.562;77.188;2023-04-09T07:30:21;32.08;;;15.45;;
26201;SDS011;13944;28.562;77.188;2023-04-09T07:32:47;37.67;;;16.55;;
26201;SDS011;13944;28.562;77.188;2023-04-09T07:35:14;34.00;;;15.48;;
26201;SDS011;13944;28.562;77.188;2023-04-09T07:37:42;36.33;;;16.00;;
26201;SDS011;13944;28.562;77.188;2023-04-09T07:40:09;35.80;;;16.73;;
26201;SDS011;13944;28.562;77.188;2023-04-09T07:42:36;35.35;;;16.77;;
26201;SDS011;13944;28.562;77.188;2023-04-09T07:45:03;42.83;;;17.35;;
26201;SDS011;13944;28.562;77.188;2023-04-09T07:47:30;33.45;;;16.75;;
26201;SDS011;13944;28.562;77.188;2023-04-09T07:49:57;32.30;;;17.00;;
26201;SDS011;13944;28.562;77.188;2023-04-09T07:52:23;33.45;;;16.17;;
26201;SDS011;13944;28.562;77.188;2023-04-09T07:54:50;31.17;;;15.85;;
26201;SDS011;13944;28.562;77.188;2023-04-09T07:57:16;31.20;;;15.40;;
26201;SDS011;13944;28.562;77.188;2023-04-09T07:59:43;33.40;;;16.80;;
26201;SDS011;13944;28.562;77.188;2023-04-09T08:02:09;44.38;;;18.38;;
26201;SDS011;13944;28.562;77.188;2023-04-09T08:04:36;35.30;;;17.02;;
26201;SDS011;13944;28.562;77.188;2023-04-09T08:07:03;35.10;;;18.10;;
26201;SDS011;13944;28.562;77.188;2023-04-09T08:09:29;31.45;;;15.60;;
26201;SDS011;13944;28.562;77.188;2023-04-09T08:11:56;32.05;;;14.48;;
26201;SDS011;13944;28.562;77.188;2023-04-09T08:14:23;33.90;;;15.20;;
26201;SDS011;13944;28.562;77.188;2023-04-09T08:16:49;27.92;;;14.73;;
26201;SDS011;13944;28.562;77.188;2023-04-09T08:19:16;29.60;;;12.77;;
26201;SDS011;13944;28.562;77.188;2023-04-09T08:21:44;25.80;;;12.90;;
26201;SDS011;13944;28.562;77.188;2023-04-09T08:24:13;30.42;;;12.35;;
26201;SDS011;13944;28.562;77.188;2023-04-09T08:26:40;29.50;;;11.10;;
26201;SDS011;13944;28.562;77.188;2023-04-09T08:29:07;22.95;;;10.18;;
26201;SDS011;13944;28.562;77.188;2023-04-09T08:31:34;21.98;;;9.23;;
26201;SDS011;13944;28.562;77.188;2023-04-09T08:34:01;24.75;;;9.73;;
26201;SDS011;13944;28.562;77.188;2023-04-09T08:36:28;22.92;;;8.80;;
26201;SDS011;13944;28.562;77.188;2023-04-09T08:38:55;23.35;;;9.55;;
26201;SDS011;13944;28.562;77.188;2023-04-09T08:41:23;24.30;;;9.70;;
26201;SDS011;13944;28.562;77.188;2023-04-09T08:43:50;22.75;;;10.55;;
26201;SDS011;13944;28.562;77.188;2023-04-09T08:46:20;21.30;;;9.77;;
26201;SDS011;13944;28.562;77.188;2023-04-09T08:48:48;24.83;;;9.25;;
26201;SDS011;13944;28.562;77.188;2023-04-09T08:51:15;18.77;;;9.60;;
26201;SDS011;13944;28.562;77.188;2023-04-09T08:53:45;25.52;;;8.98;;
26201;SDS011;13944;28.562;77.188;2023-04-09T08:56:12;26.42;;;10.55;;
26201;SDS011;13944;28.562;77.188;2023-04-09T08:58:43;32.65;;;10.52;;
26201;SDS011;13944;28.562;77.188;2023-04-09T09:03:52;27.13;;;9.77;;
26201;SDS011;13944;28.562;77.188;2023-04-09T09:06:20;18.60;;;8.85;;
26201;SDS011;13944;28.562;77.188;2023-04-09T09:11:26;20.15;;;8.98;;
26201;SDS011;13944;28.562;77.188;2023-04-09T09:14:13;19.27;;;8.70;;
26201;SDS011;13944;28.562;77.188;2023-04-09T09:16:43;18.60;;;8.10;;
26201;SDS011;13944;28.562;77.188;2023-04-09T09:19:28;24.13;;;8.38;;
26201;SDS011;13944;28.562;77.188;2023-04-09T09:21:59;21.70;;;8.68;;
26201;SDS011;13944;28.562;77.188;2023-04-09T09:24:26;20.38;;;7.22;;
26201;SDS011;13944;28.562;77.188;2023-04-09T09:26:53;24.83;;;8.70;;
26201;SDS011;13944;28.562;77.188;2023-04-09T09:29:21;20.00;;;8.57;;
26201;SDS011;13944;28.562;77.188;2023-04-09T09:31:48;30.33;;;9.80;;
26201;SDS011;13944;28.562;77.188;2023-04-09T09:34:15;23.75;;;8.60;;
26201;SDS011;13944;28.562;77.188;2023-04-09T09:36:42;24.60;;;9.10;;
26201;SDS011;13944;28.562;77.188;2023-04-09T09:39:09;53.10;;;10.82;;
26201;SDS011;13944;28.562;77.188;2023-04-09T09:41:37;23.50;;;9.43;;
26201;SDS011;13944;28.562;77.188;2023-04-09T09:44:08;23.80;;;9.98;;
26201;SDS011;13944;28.562;77.188;2023-04-09T09:46:38;18.70;;;8.77;;
26201;SDS011;13944;28.562;77.188;2023-04-09T09:49:06;23.67;;;9.27;;
26201;SDS011;13944;28.562;77.188;2023-04-09T09:51:37;23.45;;;9.23;;
26201;SDS011;13944;28.562;77.188;2023-04-09T09:54:05;18.48;;;9.05;;
26201;SDS011;13944;28.562;77.188;2023-04-09T09:56:34;22.60;;;9.65;;
26201;SDS011;13944;28.562;77.188;2023-04-09T10:01:38;23.63;;;9.18;;
26201;SDS011;13944;28.562;77.188;2023-04-09T10:04:05;23.77;;;9.35;;
26201;SDS011;13944;28.562;77.188;2023-04-09T10:06:38;25.85;;;9.75;;
26201;SDS011;13944;28.562;77.188;2023-04-09T10:09:05;31.27;;;10.57;;
26201;SDS011;13944;28.562;77.188;2023-04-09T10:11:32;22.13;;;8.63;;
26201;SDS011;13944;28.562;77.188;2023-04-09T10:14:01;30.70;;;9.57;;
26201;SDS011;13944;28.562;77.188;2023-04-09T10:16:27;33.60;;;9.50;;
26201;SDS011;13944;28.562;77.188;2023-04-09T10:18:54;28.20;;;8.93;;
26201;SDS011;13944;28.562;77.188;2023-04-09T10:24:07;22.38;;;8.65;;
26201;SDS011;13944;28.562;77.188;2023-04-09T10:26:34;19.98;;;8.55;;
26201;SDS011;13944;28.562;77.188;2023-04-09T10:29:02;20.55;;;8.68;;
26201;SDS011;13944;28.562;77.188;2023-04-09T10:31:45;18.13;;;7.95;;
26201;SDS011;13944;28.562;77.188;2023-04-09T10:34:16;22.65;;;8.38;;
26201;SDS011;13944;28.562;77.188;2023-04-09T10:36:44;20.70;;;7.97;;
26201;SDS011;13944;28.562;77.188;2023-04-09T10:39:13;20.13;;;8.57;;
26201;SDS011;13944;28.562;77.188;2023-04-09T10:41:40;18.80;;;8.20;;
26201;SDS011;13944;28.562;77.188;2023-04-09T10:46:47;17.13;;;8.25;;
26201;SDS011;13944;28.562;77.188;2023-04-09T10:49:18;17.15;;;8.40;;
26201;SDS011;13944;28.562;77.188;2023-04-09T10:51:49;19.98;;;8.82;;
26201;SDS011;13944;28.562;77.188;2023-04-09T10:59:34;20.63;;;8.80;;
26201;SDS011;13944;28.562;77.188;2023-04-09T11:02:01;20.35;;;8.68;;
26201;SDS011;13944;28.562;77.188;2023-04-09T11:04:38;18.98;;;9.30;;
26201;SDS011;13944;28.562;77.188;2023-04-09T11:07:06;28.13;;;9.20;;
26201;SDS011;13944;28.562;77.188;2023-04-09T11:09:34;23.15;;;9.73;;
26201;SDS011;13944;28.562;77.188;2023-04-09T11:12:01;21.17;;;9.20;;
26201;SDS011;13944;28.562;77.188;2023-04-09T11:14:28;21.33;;;8.75;;
26201;SDS011;13944;28.562;77.188;2023-04-09T11:16:54;22.55;;;9.45;;
26201;SDS011;13944;28.562;77.188;2023-04-09T11:19:21;23.00;;;9.98;;
26201;SDS011;13944;28.562;77.188;2023-04-09T11:21:48;21.05;;;9.60;;
26201;SDS011;13944;28.562;77.188;2023-04-09T11:24:17;21.77;;;8.38;;
26201;SDS011;13944;28.562;77.188;2023-04-09T11:26:44;19.90;;;9.02;;
26201;SDS011;13944;28.562;77.188;2023-04-09T11:29:12;22.15;;;9.05;;
26201;SDS011;13944;28.562;77.188;2023-04-09T11:31:42;25.02;;;8.98;;
26201;SDS011;13944;28.562;77.188;2023-04-09T11:34:09;27.45;;;9.43;;
26201;SDS011;13944;28.562;77.188;2023-04-09T11:36:39;22.60;;;8.73;;
26201;SDS011;13944;28.562;77.188;2023-04-09T11:39:05;21.40;;;9.73;;
26201;SDS011;13944;28.562;77.188;2023-04-09T11:41:36;20.50;;;9.15;;
26201;SDS011;13944;28.562;77.188;2023-04-09T11:44:03;19.52;;;9.30;;
26201;SDS011;13944;28.562;77.188;2023-04-09T11:46:37;21.98;;;9.18;;
26201;SDS011;13944;28.562;77.188;2023-04-09T11:49:04;21.05;;;9.40;;
26201;SDS011;13944;28.562;77.188;2023-04-09T11:51:31;25.83;;;10.05;;
26201;SDS011;13944;28.562;77.188;2023-04-09T11:54:04;25.35;;;10.48;;
26201;SDS011;13944;28.562;77.188;2023-04-09T11:56:30;26.70;;;10.35;;
26201;SDS011;13944;28.562;77.188;2023-04-09T11:58:57;25.05;;;11.50;;
26201;SDS011;13944;28.562;77.188;2023-04-09T12:01:29;20.52;;;11.02;;
26201;SDS011;13944;28.562;77.188;2023-04-09T12:03:56;20.70;;;10.07;;
26201;SDS011;13944;28.562;77.188;2023-04-09T12:06:23;22.55;;;11.38;;
26201;SDS011;13944;28.562;77.188;2023-04-09T12:08:56;26.17;;;11.13;;
26201;SDS011;13944;28.562;77.188;2023-04-09T12:11:30;29.77;;;11.20;;
26201;SDS011;13944;28.562;77.188;2023-04-09T12:14:03;27.77;;;11.40;;
26201;SDS011;13944;28.562;77.188;2023-04-09T12:16:30;20.48;;;10.25;;
26201;SDS011;13944;28.562;77.188;2023-04-09T12:19:04;19.05;;;9.88;;
26201;SDS011;13944;28.562;77.188;2023-04-09T12:21:47;23.80;;;10.88;;
26201;SDS011;13944;28.562;77.188;2023-04-09T12:24:17;26.73;;;10.38;;
26201;SDS011;13944;28.562;77.188;2023-04-09T12:26:44;21.88;;;9.77;;
26201;SDS011;13944;28.562;77.188;2023-04-09T12:29:15;24.10;;;10.02;;
26201;SDS011;13944;28.562;77.188;2023-04-09T12:31:42;32.58;;;10.05;;
26201;SDS011;13944;28.562;77.188;2023-04-09T12:34:08;22.17;;;9.90;;
26201;SDS011;13944;28.562;77.188;2023-04-09T12:36:36;22.35;;;10.27;;
26201;SDS011;13944;28.562;77.188;2023-04-09T12:39:02;28.45;;;10.50;;
26201;SDS011;13944;28.562;77.188;2023-04-09T12:41:29;22.23;;;10.45;;
26201;SDS011;13944;28.562;77.188;2023-04-09T12:43:56;20.23;;;9.60;;
26201;SDS011;13944;28.562;77.188;2023-04-09T12:46:22;24.52;;;10.10;;
26201;SDS011;13944;28.562;77.188;2023-04-09T12:48:50;23.75;;;9.70;;
26201;SDS011;13944;28.562;77.188;2023-04-09T12:51:16;27.35;;;10.10;;
26201;SDS011;13944;28.562;77.188;2023-04-09T12:53:43;25.92;;;9.60;;
26201;SDS011;13944;28.562;77.188;2023-04-09T12:56:09;25.95;;;10.68;;
26201;SDS011;13944;28.562;77.188;2023-04-09T12:58:35;24.20;;;11.07;;
26201;SDS011;13944;28.562;77.188;2023-04-09T13:01:02;23.30;;;10.52;;
26201;SDS011;13944;28.562;77.188;2023-04-09T13:03:29;22.95;;;10.23;;
26201;SDS011;13944;28.562;77.188;2023-04-09T13:05:56;23.48;;;10.85;;
26201;SDS011;13944;28.562;77.188;2023-04-09T13:08:22;29.80;;;11.57;;
26201;SDS011;13944;28.562;77.188;2023-04-09T13:10:49;22.05;;;10.85;;
26201;SDS011;13944;28.562;77.188;2023-04-09T13:13:16;25.70;;;11.63;;
26201;SDS011;13944;28.562;77.188;2023-04-09T13:15:42;24.88;;;11.95;;
26201;SDS011;13944;28.562;77.188;2023-04-09T13:18:12;27.23;;;11.18;;
26201;SDS011;13944;28.562;77.188;2023-04-09T13:20:39;27.77;;;11.75;;
26201;SDS011;13944;28.562;77.188;2023-04-09T13:23:05;33.92;;;12.50;;
26201;SDS011;13944;28.562;77.188;2023-04-09T13:25:32;24.65;;;12.18;;
26201;SDS011;13944;28.562;77.188;2023-04-09T13:27:58;26.55;;;12.80;;
26201;SDS011;13944;28.562;77.188;2023-04-09T13:30:25;27.88;;;12.73;;
26201;SDS011;13944;28.562;77.188;2023-04-09T13:32:51;30.65;;;12.13;;
26201;SDS011;13944;28.562;77.188;2023-04-09T13:35:18;36.22;;;14.05;;
26201;SDS011;13944;28.562;77.188;2023-04-09T13:37:44;34.20;;;14.13;;
26201;SDS011;13944;28.562;77.188;2023-04-09T13:40:11;32.00;;;13.48;;
26201;SDS011;13944;28.562;77.188;2023-04-09T13:42:37;28.58;;;14.38;;
26201;SDS011;13944;28.562;77.188;2023-04-09T13:45:04;41.25;;;15.18;;
26201;SDS011;13944;28.562;77.188;2023-04-09T13:47:30;38.35;;;15.10;;
26201;SDS011;13944;28.562;77.188;2023-04-09T13:50:00;46.58;;;16.52;;
26201;SDS011;13944;28.562;77.188;2023-04-09T13:52:27;56.65;;;17.20;;
26201;SDS011;13944;28.562;77.188;2023-04-09T13:54:53;51.65;;;18.50;;
26201;SDS011;13944;28.562;77.188;2023-04-09T13:57:20;50.75;;;19.45;;
26201;SDS011;13944;28.562;77.188;2023-04-09T13:59:46;51.85;;;21.05;;
26201;SDS011;13944;28.562;77.188;2023-04-09T14:02:13;60.28;;;21.98;;
26201;SDS011;13944;28.562;77.188;2023-04-09T14:04:42;58.95;;;23.38;;
26201;SDS011;13944;28.562;77.188;2023-04-09T14:07:08;73.75;;;23.05;;
26201;SDS011;13944;28.562;77.188;2023-04-09T14:09:35;69.75;;;26.35;;
26201;SDS011;13944;28.562;77.188;2023-04-09T14:12:01;86.53;;;27.80;;
26201;SDS011;13944;28.562;77.188;2023-04-09T14:14:27;82.65;;;27.75;;
26201;SDS011;13944;28.562;77.188;2023-04-09T14:16:54;88.95;;;28.25;;
26201;SDS011;13944;28.562;77.188;2023-04-09T14:19:21;87.13;;;28.20;;
26201;SDS011;13944;28.562;77.188;2023-04-09T14:21:48;82.97;;;30.75;;
26201;SDS011;13944;28.562;77.188;2023-04-09T14:24:17;83.97;;;29.88;;
26201;SDS011;13944;28.562;77.188;2023-04-09T14:26:47;81.45;;;30.15;;
26201;SDS011;13944;28.562;77.188;2023-04-09T14:29:14;79.65;;;30.27;;
26201;SDS011;13944;28.562;77.188;2023-04-09T14:31:41;81.03;;;30.23;;
26201;SDS011;13944;28.562;77.188;2023-04-09T14:34:08;94.35;;;31.15;;
26201;SDS011;13944;28.562;77.188;2023-04-09T14:36:34;85.82;;;32.58;;
26201;SDS011;13944;28.562;77.188;2023-04-09T14:39:01;86.90;;;31.25;;
26201;SDS011;13944;28.562;77.188;2023-04-09T14:41:27;101.30;;;33.10;;